createdAt,value
2023-12-13T00:01:49.428Z,12.73
2023-12-13T00:04:21.657Z,11.83
2023-12-13T00:06:49.626Z,11.77
2023-12-13T00:09:20.218Z,12.67
2023-12-13T00:11:48.336Z,12.10
2023-12-13T00:14:19.344Z,12.03
2023-12-13T00:16:47.324Z,13.00
2023-12-13T00:19:15.358Z,13.00
2023-12-13T00:21:43.501Z,13.07
2023-12-13T00:24:11.331Z,12.70
2023-12-13T00:26:41.635Z,12.97
2023-12-13T00:29:12.526Z,12.30
2023-12-13T00:31:40.167Z,14.70
2023-12-13T00:34:07.970Z,14.03
2023-12-13T00:36:35.727Z,14.07
2023-12-13T00:39:04.324Z,13.97
2023-12-13T00:41:31.684Z,15.17
2023-12-13T00:43:58.930Z,15.13
2023-12-13T00:46:28.299Z,13.03
2023-12-13T00:48:55.881Z,12.47
2023-12-13T00:51:24.485Z,13.13
2023-12-13T00:53:51.996Z,14.07
2023-12-13T00:56:19.533Z,13.67
2023-12-13T00:58:48.980Z,13.30
2023-12-13T01:01:17.503Z,13.60
2023-12-13T01:03:45.599Z,13.50
2023-12-13T01:06:13.060Z,14.80
2023-12-13T01:08:40.572Z,14.80
2023-12-13T01:11:15.576Z,14.67
2023-12-13T01:13:43.418Z,13.07
2023-12-13T01:16:11.875Z,13.30
2023-12-13T01:18:42.371Z,14.00
2023-12-13T01:21:13.158Z,13.20
2023-12-13T01:23:40.726Z,15.03
2023-12-13T01:26:08.189Z,14.30
2023-12-13T01:28:35.757Z,14.27
2023-12-13T01:31:09.996Z,16.30
2023-12-13T01:33:37.907Z,13.70
2023-12-13T01:36:06.544Z,13.67
2023-12-13T01:38:33.909Z,14.77
2023-12-13T01:41:11.941Z,13.40
2023-12-13T01:43:44.420Z,15.40
2023-12-13T01:46:14.333Z,15.07
2023-12-13T01:48:42.160Z,14.60
2023-12-13T01:51:09.927Z,16.70
2023-12-13T01:53:40.110Z,15.50
2023-12-13T01:56:09.064Z,14.10
2023-12-13T01:58:39.528Z,15.20
2023-12-13T02:01:09.225Z,15.53
2023-12-13T02:03:40.077Z,15.30
2023-12-13T02:06:07.973Z,14.03
2023-12-13T02:08:35.737Z,14.37
2023-12-13T02:11:03.523Z,15.77
2023-12-13T02:13:31.417Z,13.47
2023-12-13T02:15:59.530Z,13.63
2023-12-13T02:18:29.076Z,14.70
2023-12-13T02:20:56.506Z,13.00
2023-12-13T02:23:24.242Z,13.77
2023-12-13T02:26:03.111Z,12.77
2023-12-13T02:28:32.032Z,13.70
2023-12-13T02:31:01.602Z,14.70
2023-12-13T02:33:30.680Z,13.20
2023-12-13T02:36:01.070Z,13.30
2023-12-13T02:38:28.227Z,14.00
2023-12-13T02:40:55.231Z,12.87
2023-12-13T02:43:22.455Z,12.43
2023-12-13T02:45:49.695Z,12.30
2023-12-13T02:48:16.814Z,13.87
2023-12-13T02:50:43.914Z,12.83
2023-12-13T02:53:12.068Z,14.57
2023-12-13T02:55:39.076Z,11.13
2023-12-13T02:58:06.489Z,14.57
2023-12-13T03:00:33.516Z,13.50
2023-12-13T03:03:00.553Z,12.70
2023-12-13T03:05:27.537Z,14.10
2023-12-13T03:07:54.612Z,12.47
2023-12-13T03:10:21.778Z,13.30
2023-12-13T03:12:48.909Z,12.77
2023-12-13T03:15:16.078Z,12.20
2023-12-13T03:17:43.525Z,13.90
2023-12-13T03:20:11.832Z,12.63
2023-12-13T03:22:39.121Z,12.27
2023-12-13T03:25:07.266Z,11.83
2023-12-13T03:27:34.549Z,13.63
2023-12-13T03:30:01.782Z,11.97
2023-12-13T03:32:29.136Z,13.33
2023-12-13T03:34:56.243Z,12.27
2023-12-13T03:37:24.159Z,13.60
2023-12-13T03:39:51.145Z,14.80
2023-12-13T03:42:18.085Z,12.63
2023-12-13T03:44:45.056Z,13.63
2023-12-13T03:47:12.099Z,13.33
2023-12-13T03:49:39.165Z,15.50
2023-12-13T03:52:08.634Z,13.97
2023-12-13T03:54:36.019Z,13.30
2023-12-13T03:57:03.081Z,13.40
2023-12-13T03:59:29.966Z,13.10
2023-12-13T04:01:57.154Z,13.60
2023-12-13T04:04:24.154Z,14.10
2023-12-13T04:06:51.154Z,14.07
2023-12-13T04:09:18.030Z,12.83
2023-12-13T04:11:44.931Z,13.20
2023-12-13T04:14:11.834Z,15.03
2023-12-13T04:16:39.966Z,13.97
2023-12-13T04:19:07.388Z,14.50
2023-12-13T04:21:34.310Z,14.47
2023-12-13T04:24:03.125Z,15.00
2023-12-13T04:26:30.093Z,13.87
2023-12-13T04:28:57.117Z,15.00
2023-12-13T04:31:24.102Z,14.30
2023-12-13T04:33:51.117Z,12.70
2023-12-13T04:36:18.025Z,14.60
2023-12-13T04:38:45.223Z,13.37
2023-12-13T04:41:12.140Z,13.93
2023-12-13T04:43:39.129Z,13.37
2023-12-13T04:46:06.309Z,14.23
2023-12-13T04:48:33.354Z,14.07
2023-12-13T04:51:00.454Z,14.30
2023-12-13T04:53:27.344Z,13.70
2023-12-13T04:55:54.361Z,13.33
2023-12-13T04:58:21.297Z,13.13
2023-12-13T05:00:50.069Z,13.97
2023-12-13T05:03:17.087Z,15.20
2023-12-13T05:05:44.059Z,13.30
2023-12-13T05:08:14.107Z,13.93
2023-12-13T05:10:43.164Z,13.00
2023-12-13T05:13:10.801Z,16.00
2023-12-13T05:15:37.826Z,14.30
2023-12-13T05:18:05.533Z,15.83
2023-12-13T05:20:32.558Z,14.33
2023-12-13T05:22:59.486Z,15.03
2023-12-13T05:25:26.470Z,15.23
2023-12-13T05:27:53.475Z,14.53
2023-12-13T05:30:20.586Z,14.67
2023-12-13T05:32:47.617Z,16.00
2023-12-13T05:35:14.554Z,14.73
2023-12-13T05:37:41.584Z,14.33
2023-12-13T05:40:09.124Z,15.10
2023-12-13T05:42:36.083Z,14.10
2023-12-13T05:45:03.031Z,15.30
2023-12-13T05:47:30.127Z,15.70
2023-12-13T05:49:58.160Z,15.40
2023-12-13T05:52:25.255Z,15.53
2023-12-13T05:54:52.250Z,16.50
2023-12-13T05:57:19.212Z,14.27
2023-12-13T05:59:46.146Z,16.57
2023-12-13T06:02:13.089Z,14.87
2023-12-13T06:04:44.398Z,16.30
2023-12-13T06:07:11.948Z,16.10
2023-12-13T06:09:43.160Z,16.13
2023-12-13T06:12:10.451Z,16.37
2023-12-13T06:14:37.368Z,17.80
2023-12-13T06:17:04.709Z,16.60
2023-12-13T06:19:33.377Z,18.90
2023-12-13T06:22:00.375Z,16.67
2023-12-13T06:24:27.279Z,18.13
2023-12-13T06:26:54.371Z,15.67
2023-12-13T06:29:21.263Z,16.90
2023-12-13T06:31:48.222Z,17.53
2023-12-13T06:34:15.334Z,16.57
2023-12-13T06:36:42.306Z,17.20
2023-12-13T06:39:12.429Z,15.83
2023-12-13T06:41:42.546Z,15.83
2023-12-13T06:44:09.555Z,14.80
2023-12-13T06:46:36.917Z,15.97
2023-12-13T06:49:05.694Z,16.13
2023-12-13T06:51:32.906Z,14.57
2023-12-13T06:54:00.300Z,14.23
2023-12-13T06:56:27.842Z,14.80
2023-12-13T06:58:55.013Z,14.57
2023-12-13T07:01:23.462Z,13.93
2023-12-13T07:03:50.533Z,13.67
2023-12-13T07:06:19.225Z,12.90
2023-12-13T07:08:46.551Z,13.00
2023-12-13T07:11:13.910Z,13.30
2023-12-13T07:13:41.066Z,12.60
2023-12-13T07:16:09.005Z,12.47
2023-12-13T07:18:36.077Z,11.00
2023-12-13T07:21:03.031Z,11.93
2023-12-13T07:23:32.891Z,12.57
2023-12-13T07:25:59.896Z,12.10
2023-12-13T07:28:26.910Z,12.37
2023-12-13T07:31:02.402Z,15.00
2023-12-13T07:33:39.189Z,13.97
2023-12-13T07:36:06.844Z,15.27
2023-12-13T07:38:33.818Z,13.20
2023-12-13T07:41:00.838Z,11.10
2023-12-13T07:43:29.380Z,11.33
2023-12-13T07:45:56.856Z,11.30
2023-12-13T07:48:28.899Z,13.53
2023-12-13T07:50:59.800Z,12.40
2023-12-13T07:53:26.925Z,12.60
2023-12-13T07:55:54.519Z,13.80
2023-12-13T07:58:21.589Z,13.80
2023-12-13T08:00:48.684Z,15.70
2023-12-13T08:03:15.812Z,13.40
2023-12-13T08:05:42.791Z,13.50
2023-12-13T08:08:10.727Z,15.63
2023-12-13T08:10:37.766Z,15.07
2023-12-13T08:13:04.743Z,14.00
2023-12-13T08:15:31.746Z,15.87
2023-12-13T08:17:58.946Z,13.23
2023-12-13T08:20:30.417Z,16.17
2023-12-13T08:22:58.753Z,14.70
2023-12-13T08:25:26.019Z,14.37
2023-12-13T08:27:52.998Z,15.67
2023-12-13T08:30:20.058Z,15.33
2023-12-13T08:32:47.343Z,17.33
2023-12-13T08:35:14.384Z,14.70
2023-12-13T08:37:41.358Z,16.00
2023-12-13T08:40:09.966Z,13.97
2023-12-13T08:42:42.504Z,16.20
2023-12-13T08:45:12.535Z,15.80
2023-12-13T08:47:40.192Z,16.30
2023-12-13T08:50:07.919Z,17.00
2023-12-13T08:52:34.979Z,17.07
2023-12-13T08:55:01.981Z,15.67
2023-12-13T08:57:28.882Z,16.13
2023-12-13T08:59:59.696Z,17.37
2023-12-13T09:02:33.273Z,16.50
2023-12-13T09:05:01.629Z,18.70
2023-12-13T09:07:28.736Z,18.10
2023-12-13T09:09:55.670Z,17.50
2023-12-13T09:12:22.610Z,17.77
2023-12-13T09:14:49.521Z,20.30
2023-12-13T09:17:16.413Z,19.20
2023-12-13T09:19:43.414Z,19.40
2023-12-13T09:22:10.445Z,19.63
2023-12-13T09:24:37.345Z,17.70
2023-12-13T09:27:04.772Z,17.97
2023-12-13T09:29:32.224Z,19.23
2023-12-13T09:32:01.945Z,17.80
2023-12-13T09:34:29.000Z,18.77
2023-12-13T09:36:55.914Z,19.23
2023-12-13T09:39:24.176Z,17.40
2023-12-13T09:42:01.929Z,18.03
2023-12-13T09:44:30.523Z,19.80
2023-12-13T09:47:03.094Z,19.77
2023-12-13T09:49:37.740Z,17.67
2023-12-13T09:52:09.343Z,18.90
2023-12-13T09:54:40.260Z,19.87
2023-12-13T09:57:07.907Z,17.50
2023-12-13T09:59:36.780Z,19.27
2023-12-13T10:02:05.035Z,19.10
2023-12-13T10:04:32.856Z,18.60
2023-12-13T10:06:59.936Z,20.00
2023-12-13T10:09:30.807Z,19.20
2023-12-13T10:11:59.830Z,18.13
2023-12-13T10:14:27.039Z,20.27
2023-12-13T10:17:03.889Z,20.40
2023-12-13T10:19:39.256Z,20.97
2023-12-13T10:22:06.959Z,20.73
2023-12-13T10:24:34.801Z,21.50
2023-12-13T10:27:01.837Z,20.70
2023-12-13T10:29:30.629Z,20.00
2023-12-13T10:31:59.317Z,21.40
2023-12-13T10:34:26.677Z,20.57
2023-12-13T10:36:56.347Z,21.60
2023-12-13T10:39:25.909Z,22.67
2023-12-13T10:41:57.547Z,21.77
2023-12-13T10:44:27.971Z,21.77
2023-12-13T10:46:59.667Z,22.47
2023-12-13T10:49:27.677Z,21.10
2023-12-13T10:51:57.374Z,22.40
2023-12-13T10:54:24.624Z,22.50
2023-12-13T10:56:52.255Z,22.30
2023-12-13T10:59:19.859Z,18.60
2023-12-13T11:01:48.672Z,20.10
2023-12-13T11:04:18.086Z,20.27
2023-12-13T11:06:48.167Z,20.87
2023-12-13T11:09:22.106Z,19.37
2023-12-13T11:11:49.072Z,22.47
2023-12-13T11:14:18.962Z,21.00
2023-12-13T11:16:51.126Z,20.33
2023-12-13T11:19:23.423Z,19.40
2023-12-13T11:21:53.424Z,19.60
2023-12-13T11:24:27.060Z,21.33
2023-12-13T11:26:56.204Z,21.27
2023-12-13T11:29:30.678Z,19.43
2023-12-13T11:32:04.280Z,20.50
2023-12-13T11:34:48.457Z,20.67
2023-12-13T11:37:17.137Z,21.27
2023-12-13T11:39:45.625Z,22.40
2023-12-13T11:42:13.543Z,19.83
2023-12-13T11:44:41.616Z,20.87
2023-12-13T11:47:13.257Z,19.77
2023-12-13T11:49:42.248Z,21.20
2023-12-13T11:52:11.634Z,20.80
2023-12-13T11:54:39.029Z,20.90
2023-12-13T11:57:17.696Z,20.57
2023-12-13T11:59:45.343Z,18.10
2023-12-13T12:02:14.116Z,20.10
2023-12-13T12:04:41.538Z,19.17
2023-12-13T12:07:18.253Z,19.40
2023-12-13T12:09:55.121Z,17.23
2023-12-13T12:12:24.747Z,20.67
2023-12-13T12:14:51.695Z,18.00
2023-12-13T12:17:22.297Z,19.27
2023-12-13T12:19:50.349Z,20.47
2023-12-13T12:22:22.536Z,19.33
2023-12-13T12:24:52.805Z,21.70
2023-12-13T12:27:25.926Z,18.73
2023-12-13T12:29:53.582Z,19.80
2023-12-13T12:32:20.912Z,19.20
2023-12-13T12:34:49.250Z,19.50
2023-12-13T12:39:44.972Z,18.07
2023-12-13T12:42:13.497Z,18.37
2023-12-13T12:44:40.461Z,17.80
2023-12-13T12:47:07.473Z,20.00
2023-12-13T12:49:34.429Z,20.87
2023-12-13T12:52:01.525Z,20.27
2023-12-13T12:54:28.606Z,20.30
2023-12-13T12:56:55.563Z,18.47
2023-12-13T12:59:23.560Z,20.80
2023-12-13T13:01:51.319Z,19.87
2023-12-13T13:04:20.583Z,19.83
2023-12-13T13:06:48.000Z,20.40
2023-12-13T13:09:15.768Z,18.60
2023-12-13T13:11:43.813Z,20.03
2023-12-13T13:14:10.784Z,18.60
2023-12-13T13:16:38.572Z,18.93
2023-12-13T13:19:09.089Z,17.67
2023-12-13T13:21:36.178Z,20.17
2023-12-13T13:24:05.267Z,20.53
2023-12-13T13:26:36.232Z,17.73
2023-12-13T13:29:04.337Z,19.77
2023-12-13T13:31:31.530Z,19.43
2023-12-13T13:33:58.983Z,19.07
2023-12-13T13:36:25.955Z,18.97
2023-12-13T13:38:53.294Z,18.67
2023-12-13T13:41:20.305Z,18.27
2023-12-13T13:43:47.338Z,20.77
2023-12-13T13:46:14.315Z,21.50
2023-12-13T13:48:44.316Z,20.93
2023-12-13T13:51:11.250Z,20.07
2023-12-13T13:53:38.216Z,21.97
2023-12-13T13:56:05.451Z,22.80
2023-12-13T13:58:32.776Z,21.33
2023-12-13T14:00:59.883Z,21.57
2023-12-13T14:03:27.173Z,21.40
2023-12-13T14:05:56.945Z,21.97
2023-12-13T14:08:23.924Z,20.50
2023-12-13T14:10:52.892Z,20.77
2023-12-13T14:13:21.837Z,23.23
2023-12-13T14:15:50.472Z,23.10
2023-12-13T14:18:21.585Z,20.60
2023-12-13T14:20:51.644Z,20.60
2023-12-13T14:23:18.650Z,21.30
2023-12-13T14:25:45.740Z,22.03
2023-12-13T14:28:12.664Z,21.00
2023-12-13T14:30:39.623Z,18.00
2023-12-13T14:33:06.948Z,18.30
2023-12-13T14:35:33.985Z,20.20
2023-12-13T14:38:01.062Z,22.00
2023-12-13T14:40:28.864Z,20.80
2023-12-13T14:42:56.028Z,21.40
2023-12-13T14:45:23.084Z,21.67
2023-12-13T14:47:50.071Z,20.67
2023-12-13T14:50:17.131Z,21.50
2023-12-13T14:52:44.334Z,21.70
2023-12-13T14:55:12.230Z,20.70
2023-12-13T14:57:39.317Z,22.20
2023-12-13T15:00:13.470Z,21.17
2023-12-13T15:02:44.639Z,22.97
2023-12-13T15:05:14.242Z,19.87
2023-12-13T15:07:42.601Z,22.30
2023-12-13T15:10:12.994Z,23.17
2023-12-13T15:12:40.722Z,21.40
2023-12-13T15:15:08.947Z,21.13
2023-12-13T15:17:36.251Z,22.50
2023-12-13T15:20:09.006Z,22.07
2023-12-13T15:22:36.813Z,24.13
2023-12-13T15:25:09.894Z,23.77
2023-12-13T15:27:40.891Z,26.03
2023-12-13T15:30:11.348Z,25.07
2023-12-13T15:32:40.182Z,24.30
2023-12-13T15:35:10.495Z,26.23
2023-12-13T15:37:38.345Z,24.37
2023-12-13T15:40:07.693Z,22.30
2023-12-13T15:42:35.319Z,24.60
2023-12-13T15:45:09.418Z,23.60
2023-12-13T15:47:40.545Z,22.60
2023-12-13T15:50:14.078Z,29.57
2023-12-13T15:52:44.181Z,24.90
2023-12-13T15:55:13.515Z,23.33
2023-12-13T15:57:42.352Z,21.00
2023-12-13T16:00:13.757Z,23.33
2023-12-13T16:02:44.267Z,23.13
2023-12-13T16:05:17.656Z,22.93
2023-12-13T16:07:47.142Z,25.33
2023-12-13T16:10:22.617Z,23.60
2023-12-13T16:12:50.801Z,23.47
2023-12-13T16:15:19.064Z,23.73
2023-12-13T16:17:46.856Z,24.83
2023-12-13T16:20:14.555Z,26.00
2023-12-13T16:22:42.512Z,23.70
2023-12-13T16:25:10.554Z,25.10
2023-12-13T16:27:37.948Z,26.50
2023-12-13T16:30:07.021Z,23.83
2023-12-13T16:32:37.094Z,23.80
2023-12-13T16:35:05.460Z,22.60
2023-12-13T16:37:40.617Z,26.10
2023-12-13T16:40:16.028Z,25.20
2023-12-13T16:42:48.763Z,23.67
2023-12-13T16:45:19.978Z,24.70
2023-12-13T16:47:50.114Z,22.90
2023-12-13T16:50:18.283Z,24.40
2023-12-13T16:52:46.691Z,24.87
2023-12-13T16:55:14.620Z,25.37
2023-12-13T16:57:47.818Z,24.33
2023-12-13T17:00:16.231Z,25.47
2023-12-13T17:02:55.183Z,25.67
2023-12-13T17:08:15.681Z,24.90
2023-12-13T17:10:46.564Z,23.43
2023-12-13T17:13:14.562Z,22.10
2023-12-13T17:15:45.726Z,26.50
2023-12-13T17:18:13.970Z,24.37
2023-12-13T17:20:44.923Z,20.50
2023-12-13T17:23:12.283Z,28.70
2023-12-13T17:25:45.525Z,49.30
2023-12-13T17:28:15.965Z,44.70
2023-12-13T17:30:49.191Z,27.63
2023-12-13T17:33:17.061Z,23.80
2023-12-13T17:35:48.297Z,22.70
2023-12-13T17:38:15.884Z,22.50
2023-12-13T17:40:43.760Z,20.40
2023-12-13T17:43:15.807Z,23.87
2023-12-13T17:45:44.412Z,20.80
2023-12-13T17:48:12.087Z,20.80
2023-12-13T17:50:40.454Z,21.13
2023-12-13T17:53:07.823Z,22.03
2023-12-13T17:55:36.590Z,22.40
2023-12-13T17:58:04.257Z,21.43
2023-12-13T18:00:32.038Z,21.87
2023-12-13T18:03:00.558Z,22.87
2023-12-13T18:05:28.230Z,22.90
2023-12-13T18:07:55.796Z,21.50
2023-12-13T18:10:23.131Z,20.17
2023-12-13T18:12:50.773Z,22.97
2023-12-13T18:15:18.351Z,20.30
2023-12-13T18:17:45.647Z,20.57
2023-12-13T18:20:15.050Z,20.80
2023-12-13T18:22:42.539Z,22.23
2023-12-13T18:25:10.044Z,20.27
2023-12-13T18:27:37.643Z,21.03
2023-12-13T18:30:06.466Z,20.80
2023-12-13T18:32:34.152Z,19.97
2023-12-13T18:35:01.914Z,19.93
2023-12-13T18:37:31.228Z,18.67
2023-12-13T18:39:59.328Z,18.57
2023-12-13T18:42:26.946Z,21.10
2023-12-13T18:44:54.939Z,17.00
2023-12-13T18:47:23.324Z,19.00
2023-12-13T18:49:51.152Z,19.17
2023-12-13T18:52:18.578Z,19.37
2023-12-13T18:54:46.920Z,19.57
2023-12-13T18:57:14.320Z,19.73
2023-12-13T18:59:48.976Z,19.67
2023-12-13T19:02:19.428Z,17.10
2023-12-13T19:04:49.681Z,20.50
2023-12-13T19:07:20.276Z,19.73
2023-12-13T19:09:50.848Z,17.97
2023-12-13T19:12:18.831Z,17.70
2023-12-13T19:14:46.845Z,18.50
2023-12-13T19:17:17.336Z,18.40
2023-12-13T19:19:47.559Z,16.00
2023-12-13T19:22:15.064Z,16.90
2023-12-13T19:24:46.084Z,18.33
2023-12-13T19:27:14.063Z,17.87
2023-12-13T19:29:50.013Z,18.17
2023-12-13T19:32:22.861Z,16.17
2023-12-13T19:34:51.019Z,16.40
2023-12-13T19:37:18.943Z,17.43
2023-12-13T19:39:48.545Z,16.23
2023-12-13T19:42:16.521Z,16.73
2023-12-13T19:44:44.421Z,19.00
2023-12-13T19:47:14.221Z,17.70
2023-12-13T19:49:43.326Z,16.90
2023-12-13T19:52:11.353Z,17.80
2023-12-13T19:54:41.869Z,17.10
2023-12-13T19:57:09.880Z,16.43
2023-12-13T19:59:37.227Z,14.77
2023-12-13T20:02:05.453Z,13.30
2023-12-13T20:04:36.119Z,10.50
2023-12-13T20:07:03.941Z,10.33
2023-12-13T20:09:37.467Z,9.90
2023-12-13T20:12:08.925Z,9.87
2023-12-13T20:14:39.746Z,8.30
2023-12-13T20:17:07.150Z,6.80
2023-12-13T20:19:37.202Z,8.57
2023-12-13T20:22:05.166Z,7.83
2023-12-13T20:24:32.804Z,7.70
2023-12-13T20:27:00.337Z,7.83
2023-12-13T20:29:28.118Z,7.67
2023-12-13T20:31:55.873Z,7.10
2023-12-13T20:34:26.592Z,8.00
2023-12-13T20:37:01.156Z,8.80
2023-12-13T20:39:33.584Z,8.60
2023-12-13T20:42:03.651Z,9.53
2023-12-13T20:44:37.860Z,10.20
2023-12-13T20:47:12.734Z,8.57
2023-12-13T20:49:42.961Z,11.20
2023-12-13T20:52:19.151Z,8.80
2023-12-13T20:54:54.033Z,8.67
2023-12-13T20:57:24.646Z,10.53
2023-12-13T20:59:52.591Z,9.97
2023-12-13T21:02:23.314Z,10.57
2023-12-13T21:05:00.616Z,11.03
2023-12-13T21:07:31.054Z,9.83
2023-12-13T21:10:01.246Z,10.77
2023-12-13T21:12:31.345Z,11.67
2023-12-13T21:14:58.808Z,11.70
2023-12-13T21:17:26.550Z,10.60
2023-12-13T21:19:54.812Z,11.60
2023-12-13T21:22:22.475Z,10.90
2023-12-13T21:24:50.009Z,11.67
2023-12-13T21:27:17.585Z,10.87
2023-12-13T21:29:45.402Z,11.87
2023-12-13T21:32:13.391Z,11.63
2023-12-13T21:34:43.833Z,11.57
2023-12-13T21:37:11.687Z,11.27
2023-12-13T21:39:39.038Z,12.07
2023-12-13T21:42:06.138Z,14.00
2023-12-13T21:44:34.951Z,11.90
2023-12-13T21:47:02.343Z,10.57
2023-12-13T21:49:29.316Z,11.00
2023-12-13T21:51:56.262Z,12.67
2023-12-13T21:54:23.266Z,10.40
2023-12-13T21:56:50.208Z,12.40
2023-12-13T21:59:17.135Z,11.50
2023-12-13T22:01:44.121Z,12.20
2023-12-13T22:04:11.130Z,11.90
2023-12-13T22:06:42.431Z,10.07
2023-12-13T22:09:09.700Z,9.60
2023-12-13T22:11:36.677Z,10.47
2023-12-13T22:14:03.617Z,10.40
2023-12-13T22:16:30.701Z,9.20
2023-12-13T22:19:11.855Z,11.80
2023-12-13T22:21:39.122Z,10.50
2023-12-13T22:24:06.453Z,11.23
2023-12-13T22:26:33.369Z,10.87
2023-12-13T22:29:00.366Z,9.77
2023-12-13T22:31:27.393Z,8.73
2023-12-13T22:33:54.461Z,9.67
2023-12-13T22:36:21.414Z,9.87
2023-12-13T22:38:48.351Z,9.97
2023-12-13T22:41:15.363Z,10.20
2023-12-13T22:43:42.761Z,8.80
2023-12-13T22:46:13.358Z,10.10
2023-12-13T22:48:40.629Z,9.60
2023-12-13T22:51:07.768Z,9.40
2023-12-13T22:53:34.750Z,9.10
2023-12-13T22:56:02.813Z,6.70
2023-12-13T22:58:29.980Z,8.43
2023-12-13T23:00:56.933Z,8.60
2023-12-13T23:03:24.094Z,8.30
2023-12-13T23:05:51.087Z,9.20
2023-12-13T23:08:18.114Z,8.17
2023-12-13T23:10:45.087Z,8.50
2023-12-13T23:13:12.044Z,7.50
2023-12-13T23:15:39.150Z,8.00
2023-12-13T23:18:06.207Z,7.33
2023-12-13T23:20:33.543Z,8.57
2023-12-13T23:23:00.949Z,8.63
2023-12-13T23:25:28.122Z,9.23
2023-12-13T23:27:55.097Z,8.50
2023-12-13T23:30:22.102Z,9.20
2023-12-13T23:32:51.027Z,8.67
2023-12-13T23:35:18.362Z,9.17
2023-12-13T23:37:45.317Z,8.97
2023-12-13T23:40:13.048Z,9.40
2023-12-13T23:42:39.952Z,9.03
2023-12-13T23:45:07.742Z,10.60
2023-12-13T23:47:34.753Z,9.27
2023-12-13T23:50:01.758Z,10.93
2023-12-13T23:52:28.722Z,11.20
2023-12-13T23:54:55.726Z,10.60
2023-12-13T23:57:22.635Z,10.40
2023-12-13T23:59:49.552Z,10.83
